Time;durP1;ratioP1;P1;durP2;ratioP2;P2;SDS_P1;SDS_P2;PMS_P1;PMS_P2;Temp;Humidity;BMP_temperature;BMP_pressure;BME280_temperature;BME280_humidity;BME280_pressure;Samples;Min_cycle;Max_cycle;Signal;HPM_P1;HPM_P2
2023/05/20 00:01:28;;;;;;;2.97;1.45;;;;;;;;;;5058206;28;22337;-83
2023/05/20 00:03:54;;;;;;;1.38;0.70;;;;;;;;;;5063539;28;20392;-84
2023/05/20 00:06:20;;;;;;;2.88;1.30;;;;;;;;;;5046227;28;20441;-84
2023/05/20 00:08:46;;;;;;;1.83;0.90;;;;;;;;;;5040591;28;20398;-83
2023/05/20 00:11:12;;;;;;;3.50;1.55;;;;;;;;;;5036097;28;20437;-83
2023/05/20 00:13:38;;;;;;;3.38;1.40;;;;;;;;;;5050416;28;20420;-85
2023/05/20 00:16:05;;;;;;;1.83;1.00;;;;;;;;;;5060824;28;20475;-85
2023/05/20 00:18:31;;;;;;;2.85;1.75;;;;;;;;;;5054457;28;20410;-83
2023/05/20 00:20:57;;;;;;;3.30;1.30;;;;;;;;;;5050117;28;20402;-84
2023/05/20 00:23:23;;;;;;;3.05;1.27;;;;;;;;;;5062866;28;20407;-84
2023/05/20 00:25:49;;;;;;;2.65;1.30;;;;;;;;;;5052127;28;20405;-84
2023/05/20 00:28:15;;;;;;;2.53;1.30;;;;;;;;;;5019187;28;20391;-82
2023/05/20 00:30:42;;;;;;;5.30;1.35;;;;;;;;;;5071509;28;20444;-85
2023/05/20 00:33:08;;;;;;;3.35;1.42;;;;;;;;;;5044977;28;20536;-83
2023/05/20 00:35:34;;;;;;;2.97;1.30;;;;;;;;;;5061670;28;20400;-85
2023/05/20 00:38:00;;;;;;;2.27;1.40;;;;;;;;;;5059653;28;20409;-86
2023/05/20 00:40:26;;;;;;;4.53;2.22;;;;;;;;;;5052831;28;20395;-83
2023/05/20 00:42:52;;;;;;;4.78;1.95;;;;;;;;;;5047523;28;20406;-82
2023/05/20 00:45:18;;;;;;;3.10;1.50;;;;;;;;;;5064088;28;20419;-83
2023/05/20 00:47:44;;;;;;;2.03;1.23;;;;;;;;;;5064100;28;20483;-83
2023/05/20 00:50:11;;;;;;;3.00;1.25;;;;;;;;;;5040878;28;20486;-85
2023/05/20 00:52:37;;;;;;;2.25;1.42;;;;;;;;;;5040377;28;20918;-84
2023/05/20 00:55:03;;;;;;;2.50;1.20;;;;;;;;;;5064609;28;20408;-85
2023/05/20 00:57:29;;;;;;;2.37;1.60;;;;;;;;;;5056615;28;20417;-82
2023/05/20 00:59:56;;;;;;;3.03;1.63;;;;;;;;;;5059144;28;20398;-85
2023/05/20 01:02:22;;;;;;;2.53;1.52;;;;;;;;;;5071405;28;20885;-85
2023/05/20 01:04:48;;;;;;;5.30;1.67;;;;;;;;;;5070919;28;20407;-84
2023/05/20 01:07:18;;;;;;;2.92;1.70;;;;;;;;;;5042941;28;20986;-84
2023/05/20 01:09:44;;;;;;;5.70;2.13;;;;;;;;;;5044265;28;20403;-84
2023/05/20 01:12:12;;;;;;;2.85;1.65;;;;;;;;;;5065968;28;20390;-85
2023/05/20 01:14:49;;;;;;;3.13;1.65;;;;;;;;;;5046595;28;20413;-87
2023/05/20 01:17:16;;;;;;;4.57;2.03;;;;;;;;;;5059047;28;20484;-85
2023/05/20 01:19:43;;;;;;;2.77;1.77;;;;;;;;;;5055839;28;20755;-83
2023/05/20 01:22:11;;;;;;;2.92;1.70;;;;;;;;;;5051988;28;20482;-84
2023/05/20 01:24:39;;;;;;;2.67;1.42;;;;;;;;;;5042287;28;20434;-83
2023/05/20 01:27:09;;;;;;;4.15;1.85;;;;;;;;;;5051055;28;20464;-82
2023/05/20 01:29:35;;;;;;;2.42;1.50;;;;;;;;;;5062323;28;20821;-84
2023/05/20 01:32:02;;;;;;;2.97;1.40;;;;;;;;;;5056579;28;20479;-84
2023/05/20 01:34:29;;;;;;;2.28;1.08;;;;;;;;;;5041460;28;20427;-84
2023/05/20 01:36:55;;;;;;;2.43;1.07;;;;;;;;;;5054447;28;20403;-84
2023/05/20 01:39:23;;;;;;;2.67;1.20;;;13.20;99.90;;;;;;5043318;28;20287;-83
2023/05/20 01:41:50;;;;;;;2.55;1.67;;;;;;;;;;5056037;28;20031;-84
2023/05/20 01:44:16;;;;;;;2.50;1.43;;;;;;;;;;5063494;28;20565;-84
2023/05/20 01:46:42;;;;;;;3.63;1.40;;;;;;;;;;5044750;28;20488;-84
2023/05/20 01:49:08;;;;;;;3.75;1.33;;;;;;;;;;5052488;28;20407;-85
2023/05/20 01:51:34;;;;;;;2.05;0.95;;;;;;;;;;5053121;28;20399;-85
2023/05/20 01:54:00;;;;;;;2.83;1.17;;;;;;;;;;5054065;28;20560;-85
2023/05/20 01:56:26;;;;;;;4.38;1.42;;;;;;;;;;5051533;28;20422;-83
2023/05/20 01:58:52;;;;;;;4.40;1.90;;;;;;;;;;5067552;28;20412;-84
2023/05/20 02:01:18;;;;;;;5.32;3.08;;;;;;;;;;5053004;28;20397;-84
2023/05/20 02:03:44;;;;;;;3.88;2.90;;;;;;;;;;5068347;28;20396;-84
2023/05/20 02:06:10;;;;;;;3.53;1.90;;;;;;;;;;5061209;28;20474;-84
2023/05/20 02:08:37;;;;;;;4.90;1.90;;;;;;;;;;5057938;28;20418;-85
2023/05/20 02:11:03;;;;;;;4.28;1.50;;;;;;;;;;5057180;28;20403;-84
2023/05/20 02:13:29;;;;;;;4.68;2.10;;;;;;;;;;5053158;28;20399;-84
2023/05/20 02:15:55;;;;;;;2.97;1.45;;;;;;;;;;5057780;28;20439;-84
2023/05/20 02:18:21;;;;;;;2.30;1.25;;;;;;;;;;5062472;28;20468;-84
2023/05/20 02:20:47;;;;;;;2.72;1.33;;;;;;;;;;5062065;28;20395;-83
2023/05/20 02:23:13;;;;;;;2.83;1.27;;;;;;;;;;5045417;28;20415;-83
2023/05/20 02:25:40;;;;;;;3.50;1.50;;;;;;;;;;5058572;28;20413;-85
2023/05/20 02:28:09;;;;;;;2.47;1.77;;;;;;;;;;5055061;28;20485;-85
2023/05/20 02:30:35;;;;;;;4.07;1.90;;;;;;;;;;5047149;28;20438;-84
2023/05/20 02:33:01;;;;;;;8.43;1.98;;;;;;;;;;5059251;28;20399;-83
2023/05/20 02:35:27;;;;;;;6.18;2.30;;;;;;;;;;5043118;28;20966;-83
2023/05/20 02:37:53;;;;;;;4.88;2.42;;;;;;;;;;5049661;28;20421;-85
2023/05/20 02:40:19;;;;;;;3.80;1.67;;;;;;;;;;5055618;28;20431;-84
2023/05/20 02:42:45;;;;;;;3.83;2.00;;;;;;;;;;5040639;28;20403;-84
2023/05/20 02:45:11;;;;;;;5.25;2.20;;;;;;;;;;5059126;28;20447;-85
2023/05/20 02:47:37;;;;;;;3.90;1.93;;;;;;;;;;5067498;28;20425;-84
2023/05/20 02:50:03;;;;;;;6.03;1.60;;;;;;;;;;5054872;28;21037;-84
2023/05/20 02:52:29;;;;;;;5.53;1.88;;;;;;;;;;5049391;28;20455;-85
2023/05/20 02:54:55;;;;;;;7.10;2.40;;;;;;;;;;5069289;28;20431;-82
2023/05/20 02:57:21;;;;;;;3.57;1.60;;;;;;;;;;5055761;28;20412;-82
2023/05/20 02:59:47;;;;;;;6.20;2.55;;;;;;;;;;5063791;28;20399;-84
2023/05/20 03:02:13;;;;;;;4.22;1.83;;;;;;;;;;5060697;28;21209;-85
2023/05/20 03:04:39;;;;;;;5.07;1.92;;;;;;;;;;5041014;28;20411;-82
2023/05/20 03:07:09;;;;;;;3.70;1.90;;;;;;;;;;5048634;28;20874;-83
2023/05/20 03:09:35;;;;;;;4.03;2.15;;;;;;;;;;5055762;28;20389;-82
2023/05/20 03:12:01;;;;;;;4.10;1.85;;;;;;;;;;5055574;28;20393;-82
2023/05/20 03:14:27;;;;;;;3.15;1.48;;;;;;;;;;5051047;28;21287;-82
2023/05/20 03:16:56;;;;;;;3.50;1.27;;;;;;;;;;5058222;28;20953;-84
2023/05/20 03:19:22;;;;;;;1.90;0.95;;;;;;;;;;5062599;28;20416;-83
2023/05/20 03:21:49;;;;;;;4.00;1.70;;;;;;;;;;5065892;28;20395;-82
2023/05/20 03:24:15;;;;;;;3.70;1.70;;;;;;;;;;5059528;28;20502;-82
2023/05/20 03:26:42;;;;;;;3.40;1.88;;;;;;;;;;5051465;28;21079;-83
2023/05/20 03:29:08;;;;;;;4.03;1.88;;;12.20;99.90;;;;;;5046068;28;20405;-82
2023/05/20 03:31:35;;;;;;;4.10;1.77;;;;;;;;;;5061082;28;20403;-82
2023/05/20 03:34:01;;;;;;;4.45;2.17;;;;;;;;;;5060628;28;20404;-81
2023/05/20 03:36:27;;;;;;;2.40;1.65;;;;;;;;;;5054509;28;20409;-85
2023/05/20 03:38:53;;;;;;;4.97;2.03;;;;;;;;;;5057586;28;20401;-81
2023/05/20 03:41:19;;;;;;;4.15;2.08;;;;;;;;;;5048181;28;22917;-84
2023/05/20 03:43:45;;;;;;;4.05;1.92;;;;;;;;;;5039683;28;20403;-84
2023/05/20 03:46:12;;;;;;;3.57;1.30;;;;;;;;;;5056318;28;20418;-83
2023/05/20 03:48:37;;;;;;;6.07;1.90;;;;;;;;;;5059025;28;20393;-82
2023/05/20 03:51:03;;;;;;;4.50;1.58;;;;;;;;;;5061832;28;20407;-82
2023/05/20 03:53:30;;;;;;;5.03;2.20;;;;;;;;;;5069646;28;20445;-83
2023/05/20 03:55:56;;;;;;;4.72;1.85;;;;;;;;;;5067436;28;20430;-84
2023/05/20 03:58:22;;;;;;;3.10;1.50;;;;;;;;;;5060195;28;20511;-84
2023/05/20 04:00:48;;;;;;;2.90;1.15;;;;;;;;;;5029706;28;20484;-84
2023/05/20 04:03:14;;;;;;;3.42;1.83;;;;;;;;;;5055681;28;20400;-82
2023/05/20 04:05:40;;;;;;;3.45;1.60;;;;;;;;;;5056919;28;20887;-82
2023/05/20 04:08:08;;;;;;;3.17;1.90;;;;;;;;;;5060232;28;20459;-84
2023/05/20 04:10:35;;;;;;;3.95;1.88;;;;;;;;;;5037422;28;20404;-81
2023/05/20 04:13:01;;;;;;;4.03;1.90;;;;;;;;;;5061075;28;20402;-82
2023/05/20 04:15:28;;;;;;;4.07;1.90;;;;;;;;;;5042760;28;20405;-82
2023/05/20 04:17:54;;;;;;;4.25;1.98;;;;;;;;;;5059790;28;20414;-83
2023/05/20 04:20:20;;;;;;;4.45;1.58;;;;;;;;;;5057435;28;20507;-84
2023/05/20 04:22:47;;;;;;;6.65;2.45;;;;;;;;;;5061970;28;20396;-82
2023/05/20 04:25:13;;;;;;;4.18;2.08;;;;;;;;;;5075629;28;20484;-82
2023/05/20 04:27:39;;;;;;;5.22;2.35;;;;;;;;;;5061100;28;20396;-82
2023/05/20 04:30:06;;;;;;;4.88;2.40;;;;;;;;;;5068862;28;20395;-82
2023/05/20 04:32:36;;;;;;;3.90;2.38;;;;;;;;;;5046243;28;20400;-83
2023/05/20 04:35:02;;;;;;;4.82;2.33;;;;;;;;;;5050049;28;20527;-83
2023/05/20 04:37:28;;;;;;;4.07;2.15;;;;;;;;;;5064302;28;20419;-85
2023/05/20 04:39:54;;;;;;;6.03;2.13;;;;;;;;;;5058194;28;20406;-82
2023/05/20 04:42:21;;;;;;;3.83;2.20;;;;;;;;;;5042113;28;20457;-82
2023/05/20 04:44:47;;;;;;;3.58;2.00;;;;;;;;;;5059480;28;20889;-83
2023/05/20 04:47:13;;;;;;;3.80;2.10;;;;;;;;;;5072900;28;20405;-83
2023/05/20 04:49:39;;;;;;;5.00;2.30;;;;;;;;;;5059914;28;20434;-83
2023/05/20 04:52:05;;;;;;;4.85;2.40;;;;;;;;;;5026003;28;20431;-83
2023/05/20 04:54:31;;;;;;;6.10;2.75;;;;;;;;;;5063628;28;20394;-84
2023/05/20 04:56:58;;;;;;;4.25;2.10;;;;;;;;;;5069250;28;20395;-85
2023/05/20 04:59:24;;;;;;;3.08;2.00;;;;;;;;;;5063775;28;20521;-84
2023/05/20 05:01:50;;;;;;;2.58;1.58;;;;;;;;;;5068100;28;20429;-83
2023/05/20 05:04:16;;;;;;;3.63;1.90;;;;;;;;;;5038020;28;20447;-82
2023/05/20 05:06:42;;;;;;;4.32;1.80;;;;;;;;;;5030026;28;20407;-83
2023/05/20 05:09:08;;;;;;;4.68;2.53;;;;;;;;;;5053125;28;20418;-85
2023/05/20 05:11:34;;;;;;;7.38;3.97;;;;;;;;;;5035486;28;20402;-84
2023/05/20 05:14:00;;;;;;;12.05;7.70;;;;;;;;;;5041563;28;20405;-82
2023/05/20 05:16:26;;;;;;;3.92;2.65;;;;;;;;;;5062805;28;20971;-82
2023/05/20 05:18:52;;;;;;;5.85;3.63;;;;;;;;;;5058598;28;20501;-83
2023/05/20 05:21:18;;;;;;;4.30;2.88;;;;;;;;;;5054077;28;20566;-84
2023/05/20 05:23:44;;;;;;;5.97;2.75;;;;;;;;;;5039699;28;20499;-84
2023/05/20 05:26:10;;;;;;;5.13;2.58;;;;;;;;;;5062643;28;20404;-83
2023/05/20 05:28:36;;;;;;;4.55;2.33;;;;;;;;;;5041256;28;20403;-83
2023/05/20 05:31:02;;;;;;;2.95;1.90;;;;;;;;;;5062350;28;20407;-83
2023/05/20 05:33:28;;;;;;;4.85;2.50;;;;;;;;;;5044640;28;20477;-83
2023/05/20 05:35:57;;;;;;;5.32;2.40;;;;;;;;;;5066514;28;20489;-82
2023/05/20 05:38:23;;;;;;;5.43;2.73;;;;;;;;;;5057601;28;20427;-81
2023/05/20 05:40:49;;;;;;;;;;;17.30;99.90;;;;;;5061750;28;20016;-82
2023/05/20 05:43:15;;;;;;;;;;;17.40;99.90;;;;;;5064440;28;20387;-82
2023/05/20 05:45:42;;;;;;;;;;;17.60;99.90;;;;;;5058455;28;19930;-82
2023/05/20 05:48:08;;;;;;;3.97;1.98;;;;;;;;;;5053188;28;19916;-83
2023/05/20 05:50:34;;;;;;;5.72;1.92;;;;;;;;;;5041461;28;20739;-83
2023/05/20 05:52:59;;;;;;;4.03;2.30;;;;;;;;;;5060712;28;20020;-82
2023/05/20 05:55:26;;;;;;;5.22;2.00;;;;;;;;;;5049989;28;20039;-82
2023/05/20 05:57:52;;;;;;;5.85;2.30;;;;;;;;;;5063208;28;20576;-83
2023/05/20 06:00:18;;;;;;;5.55;1.95;;;;;;;;;;5060456;28;20163;-84
2023/05/20 06:02:44;;;;;;;4.40;2.17;;;;;;;;;;5040829;28;20033;-84
2023/05/20 06:05:10;;;;;;;3.45;2.17;;;;;;;;;;5035944;28;20067;-84
2023/05/20 06:07:36;;;;;;;4.35;2.60;;;;;;;;;;5024364;28;20028;-83
2023/05/20 06:10:02;;;;;;;4.75;2.38;;;;;;;;;;5031191;28;20033;-83
2023/05/20 06:12:28;;;;;;;4.05;2.08;;;;;;;;;;5057453;28;20437;-82
2023/05/20 06:14:54;;;;;;;5.53;1.80;;;;;;;;;;5034809;28;20028;-84
2023/05/20 06:17:20;;;;;;;3.58;2.22;;;;;;;;;;5051178;28;20641;-82
2023/05/20 06:19:46;;;;;;;6.45;2.83;;;;;;;;;;5038095;28;20146;-82
2023/05/20 06:22:13;;;;;;;3.78;2.10;;;;;;;;;;5054751;28;20028;-86
2023/05/20 06:24:39;;;;;;;4.18;2.10;;;;;;;;;;5051065;28;20073;-89
2023/05/20 06:27:05;;;;;;;8.05;2.30;;;;;;;;;;5019232;28;21458;-84
2023/05/20 06:29:31;;;;;;;7.35;3.67;;;;;;;;;;5054449;28;20024;-83
2023/05/20 06:31:57;;;;;;;4.55;2.78;;;;;;;;;;5040405;28;20028;-85
2023/05/20 06:34:23;;;;;;;4.35;2.22;;;;;;;;;;5045533;28;20023;-85
2023/05/20 06:36:49;;;;;;;4.10;2.55;;;;;;;;;;5060520;28;20128;-87
2023/05/20 06:39:15;;;;;;;3.15;2.03;;;;;;;;;;5051542;28;20485;-82
2023/05/20 06:41:42;;;;;;;4.63;2.72;;;;;;;;;;5035238;28;20027;-87
2023/05/20 06:44:08;;;;;;;8.45;2.20;;;;;;;;;;5050630;28;20044;-83
2023/05/20 06:46:34;;;;;;;5.05;2.28;;;;;;;;;;5054202;28;20560;-86
2023/05/20 06:49:00;;;;;;;7.53;3.00;;;;;;;;;;5041019;28;20490;-83
2023/05/20 06:51:27;;;;;;;4.65;2.22;;;;;;;;;;5043696;28;20032;-84
2023/05/20 06:53:53;;;;;;;3.80;2.30;;;;;;;;;;5040151;28;20126;-84
2023/05/20 06:56:20;;;;;;;4.97;2.85;;;;;;;;;;5057018;28;20069;-82
2023/05/20 06:58:46;;;;;;;4.60;3.03;;;;;;;;;;5049901;28;20012;-89
2023/05/20 07:01:12;;;;;;;5.43;2.72;;;;;;;;;;5053468;28;20078;-87
2023/05/20 07:03:38;;;;;;;4.75;2.17;;;;;;;;;;5058868;28;20505;-85
2023/05/20 07:06:05;;;;;;;4.40;2.00;;;;;;;;;;5051101;28;20075;-85
2023/05/20 07:08:31;;;;;;;4.82;2.50;;;;;;;;;;5052982;28;20207;-83
2023/05/20 07:10:57;;;;;;;3.92;2.05;;;;;;;;;;5054112;28;20576;-85
2023/05/20 07:13:24;;;;;;;3.55;2.00;;;;;;;;;;5054451;28;20046;-82
2023/05/20 07:15:50;;;;;;;3.90;2.33;;;;;;;;;;5045868;28;20033;-84
2023/05/20 07:18:16;;;;;;;4.03;2.30;;;;;;;;;;5039391;28;20081;-84
2023/05/20 07:20:43;;;;;;;5.40;2.40;;;;;;;;;;5046330;28;20052;-83
2023/05/20 07:23:09;;;;;;;4.30;2.60;;;;;;;;;;5047140;28;20542;-83
2023/05/20 07:25:35;;;;;;;6.43;2.42;;;;;;;;;;5059867;28;20029;-84
2023/05/20 07:28:01;;;;;;;4.88;2.95;;;;;;;;;;5045839;28;20024;-82
2023/05/20 07:30:27;;;;;;;5.55;2.60;;;;;;;;;;5055546;28;20067;-83
2023/05/20 07:32:53;;;;;;;5.43;3.00;;;;;;;;;;5063537;28;20064;-85
2023/05/20 07:35:21;;;;;;;6.50;2.40;;;;;;;;;;5069930;28;20088;-83
2023/05/20 07:37:47;;;;;;;4.53;2.22;;;;;;;;;;5048193;28;20512;-83
2023/05/20 07:40:13;;;;;;;4.70;2.75;;;;;;;;;;5052437;28;20052;-83
2023/05/20 07:42:39;;;;;;;6.60;2.85;;;;;;;;;;5052921;28;20075;-81
2023/05/20 07:45:06;;;;;;;2.25;1.85;;;;;;;;;;5042706;28;20025;-81
2023/05/20 07:47:32;;;;;;;4.03;2.42;;;;;;;;;;5063541;28;20059;-84
2023/05/20 07:49:58;;;;;;;3.35;2.15;;;;;;;;;;5066228;28;20064;-83
2023/05/20 07:52:24;;;;;;;5.88;2.72;;;;;;;;;;5049595;28;20378;-84
2023/05/20 07:54:50;;;;;;;6.75;3.38;;;;;;;;;;5055754;28;20063;-83
2023/05/20 07:57:16;;;;;;;5.68;2.97;;;;;;;;;;5052467;28;20025;-86
2023/05/20 07:59:43;;;;;;;;;;;20.80;91.40;;;;;;5057888;28;20131;-83
2023/05/20 08:02:09;;;;;;;;;;;20.80;91.40;;;;;;5072775;28;19912;-85
2023/05/20 08:04:35;;;;;;;;;;;;;;;;;;5073993;28;19911;-83
2023/05/20 08:07:01;;;;;;;;;;;20.80;92.00;;;;;;5067492;28;19917;-83
2023/05/20 08:09:26;;;;;;;;;;;20.80;92.00;;;;;;5067278;28;19936;-84
2023/05/20 08:11:52;;;;;;;;;;;20.70;92.10;;;;;;5051565;28;19921;-84
2023/05/20 08:14:17;;;;;;;;;;;20.90;91.90;;;;;;5052453;28;20403;-84
2023/05/20 08:16:43;;;;;;;;;;;20.90;92.80;;;;;;5068260;28;19923;-83
2023/05/20 08:19:08;;;;;;;;;;;20.90;92.90;;;;;;5071437;28;19918;-83
2023/05/20 08:21:34;;;;;;;;;;;21.30;92.60;;;;;;5050442;28;20336;-83
2023/05/20 08:24:00;;;;;;;;;;;21.60;91.10;;;;;;5069863;28;19908;-83
2023/05/20 08:26:25;;;;;;;;;;;21.80;90.40;;;;;;5070518;28;20369;-83
2023/05/20 08:28:51;;;;;;;;;;;22.00;90.40;;;;;;5066070;28;20872;-84
2023/05/20 08:31:17;;;;;;;5.47;2.38;;;;;;;;;;5069719;28;19909;-83
2023/05/20 08:33:43;;;;;;;5.05;2.67;;;;;;;;;;5054027;28;20035;-82
2023/05/20 08:36:09;;;;;;;5.45;2.63;;;;;;;;;;5077873;28;20385;-83
2023/05/20 08:38:35;;;;;;;7.18;2.80;;;;;;;;;;5067957;28;20406;-81
2023/05/20 08:41:01;;;;;;;5.00;2.45;;;;;;;;;;5069545;28;20396;-83
2023/05/20 08:43:29;;;;;;;5.53;2.85;;;;;;;;;;5053624;28;20032;-84
2023/05/20 08:45:55;;;;;;;5.63;2.55;;;24.90;77.70;;;;;;5052671;28;20020;-83
2023/05/20 08:48:22;;;;;;;5.50;3.00;;;25.90;76.90;;;;;;5067580;28;20056;-83
2023/05/20 08:50:52;;;;;;;3.97;2.83;;;26.10;67.30;;;;;;5068090;28;20552;-84
2023/05/20 08:53:20;;;;;;;7.90;3.45;;;26.70;70.60;;;;;;5071882;28;20153;-84
2023/05/20 08:55:52;;;;;;;4.85;2.80;;;27.40;86.90;;;;;;5051116;28;20483;-83
2023/05/20 08:58:18;;;;;;;6.03;3.35;;;;;;;;;;5062534;28;20035;-84
2023/05/20 09:00:45;;;;;;;3.83;2.38;;;;;;;;;;5067836;28;20048;-82
2023/05/20 09:03:11;;;;;;;4.43;2.75;;;;;;;;;;5051521;28;20416;-82
2023/05/20 09:05:37;;;;;;;4.35;2.35;;;;;;;;;;5067509;28;20025;-82
2023/05/20 09:08:07;;;;;;;4.97;2.75;;;30.20;58.00;;;;;;5050404;28;20491;-84
2023/05/20 09:10:34;;;;;;;5.00;2.22;;;;;;;;;;5050382;28;20032;-83
2023/05/20 09:13:01;;;;;;;4.90;2.80;;;30.90;59.00;;;;;;5064337;28;20033;-83
2023/05/20 09:15:27;;;;;;;3.55;2.55;;;;;;;;;;5052408;28;20758;-85
2023/05/20 09:17:53;;;;;;;6.38;2.60;;;;;;;;;;5063922;28;21194;-82
2023/05/20 09:20:21;;;;;;;4.78;2.50;;;;;;;;;;5072893;28;20017;-83
2023/05/20 09:22:50;;;;;;;4.95;2.53;;;;;;;;;;5070140;28;20058;-85
2023/05/20 09:25:18;;;;;;;4.22;2.05;;;;;;;;;;5040994;28;20116;-82
2023/05/20 09:27:44;;;;;;;4.95;2.60;;;;;;;;;;5049658;28;20120;-83
2023/05/20 09:30:11;;;;;;;4.15;2.58;;;;;;;;;;5064430;28;20055;-85
2023/05/20 09:32:37;;;;;;;5.15;2.60;;;;;;;;;;5069378;28;20035;-82
2023/05/20 09:35:05;;;;;;;5.70;2.42;;;;;;;;;;5050833;28;20032;-83
2023/05/20 09:37:33;;;;;;;4.70;2.35;;;24.20;77.10;;;;;;5051098;28;20028;-83
2023/05/20 09:40:08;;;;;;;;;;;22.80;77.50;;;;;;5048971;28;20143;-83
2023/05/20 09:42:33;;;;;;;;;;;22.90;79.20;;;;;;5050207;28;19908;-84
2023/05/20 09:44:59;;;;;;;;;;;22.70;81.70;;;;;;5071664;28;19924;-84
2023/05/20 09:47:25;;;;;;;;;;;22.80;79.90;;;;;;5064127;28;19916;-82
2023/05/20 09:49:51;;;;;;;;;;;23.90;79.60;;;;;;5063964;28;19908;-82
2023/05/20 09:52:17;;;;;;;;;;;23.20;79.70;;;;;;5070089;28;20372;-83
2023/05/20 09:54:43;;;;;;;;;;;23.90;80.20;;;;;;5068488;28;19915;-83
2023/05/20 09:57:09;;;;;;;;;;;23.70;79.20;;;;;;5068202;28;19909;-85
2023/05/20 09:59:35;;;;;;;;;;;22.90;78.50;;;;;;5063253;28;19912;-82
2023/05/20 10:02:01;;;;;;;;;;;24.20;80.40;;;;;;5040392;28;19915;-84
2023/05/20 10:04:27;;;;;;;;;;;24.20;79.10;;;;;;5045321;28;19916;-83
2023/05/20 10:06:53;;;;;;;;;;;23.40;79.90;;;;;;5046686;28;20003;-82
2023/05/20 10:09:36;;;;;;;;;;;23.90;79.40;;;;;;5054199;28;20369;-81
2023/05/20 10:12:10;;;;;;;;;;;24.30;80.50;;;;;;5061273;28;19978;-83
2023/05/20 10:14:53;;;;;;;;;;;23.30;79.70;;;;;;5069375;28;19908;-83
2023/05/20 10:17:39;;;;;;;;;;;24.40;81.00;;;;;;5071329;28;19916;-84
2023/05/20 10:20:07;;;;;;;;;;;23.90;79.80;;;;;;5035925;28;19915;-83
2023/05/20 10:22:33;;;;;;;;;;;24.60;79.30;;;;;;5060603;28;19928;-83
2023/05/20 10:25:05;;;;;;;;;;;24.80;80.10;;;;;;5062189;28;20376;-83
2023/05/20 10:27:41;;;;;;;;;;;23.80;80.60;;;;;;5051865;28;19916;-83
2023/05/20 10:30:14;;;;;;;;;;;24.90;80.80;;;;;;5040928;28;19950;-84
2023/05/20 10:32:47;;;;;;;;;;;23.80;76.40;;;;;;5067449;28;19966;-83
2023/05/20 10:35:12;;;;;;;;;;;23.60;78.10;;;;;;5067193;28;19908;-82
2023/05/20 10:37:42;;;;;;;;;;;23.60;79.10;;;;;;5071618;28;20017;-83
2023/05/20 10:40:11;;;;;;;;;;;23.50;77.50;;;;;;5062095;28;20014;-86
2023/05/20 10:42:37;;;;;;;;;;;24.40;77.80;;;;;;5070141;28;20415;-82
2023/05/20 10:45:03;;;;;;;;;;;23.50;79.20;;;;;;5053312;28;19904;-82
2023/05/20 10:47:29;;;;;;;;;;;23.00;79.20;;;;;;5041160;28;19993;-82
2023/05/20 10:49:55;;;;;;;;;;;25.60;80.10;;;;;;5036570;28;19909;-82
2023/05/20 10:52:20;;;;;;;;;;;24.70;79.50;;;;;;5058782;28;20896;-83
2023/05/20 10:54:56;;;;;;;;;;;23.60;80.40;;;;;;5036235;28;19959;-82
2023/05/20 10:57:22;;;;;;;;;;;24.70;76.10;;;;;;5069082;28;20523;-85
2023/05/20 10:59:48;;;;;;;;;;;24.70;75.70;;;;;;5049945;28;19961;-82
2023/05/20 11:02:17;;;;;;;;;;;24.60;77.80;;;;;;5051311;28;19917;-83
2023/05/20 11:04:43;;;;;;;;;;;23.40;77.10;;;;;;5070410;28;20300;-85
2023/05/20 11:07:09;;;;;;;;;;;23.10;77.30;;;;;;5050243;28;20007;-83
2023/05/20 11:09:34;;;;;;;;;;;24.00;81.50;;;;;;5043314;28;19912;-83
2023/05/20 11:12:00;;;;;;;;;;;24.10;82.30;;;;;;5070884;28;19908;-84
2023/05/20 11:14:29;;;;;;;;;;;23.20;81.50;;;;;;5067619;28;19908;-82
2023/05/20 11:16:58;;;;;;;;;;;24.10;78.60;;;;;;5048907;28;19969;-86
2023/05/20 11:19:27;;;;;;;;;;;24.30;79.10;;;;;;5048666;28;19958;-81
2023/05/20 11:21:52;;;;;;;;;;;24.00;79.70;;;;;;5070194;28;20063;-84
2023/05/20 11:24:25;;;;;;;;;;;23.20;79.70;;;;;;5046478;28;20062;-81
2023/05/20 11:26:51;;;;;;;;;;;24.00;80.40;;;;;;5063468;28;19908;-83
2023/05/20 11:29:18;;;;;;;;;;;24.50;79.00;;;;;;5073617;28;19908;-86
2023/05/20 11:31:44;;;;;;;;;;;24.60;79.80;;;;;;5073992;28;19991;-84
2023/05/20 11:34:10;;;;;;;;;;;25.00;80.20;;;;;;5058890;28;20030;-85
2023/05/20 11:36:39;;;;;;;;;;;24.10;79.10;;;;;;5071256;28;19916;-84
2023/05/20 11:39:05;;;;;;;;;;;24.10;75.50;;;;;;5050916;28;20434;-84
2023/05/20 11:41:30;;;;;;;;;;;24.70;76.00;;;;;;5065785;28;19998;-82
2023/05/20 11:43:59;;;;;;;;;;;24.90;76.10;;;;;;5074255;28;20360;-85
2023/05/20 11:46:25;;;;;;;;;;;24.60;75.90;;;;;;5058152;28;19914;-85
2023/05/20 11:48:53;;;;;;;;;;;24.80;75.90;;;;;;5044813;28;19909;-86
2023/05/20 11:51:23;;;;;;;;;;;24.90;77.40;;;;;;5061155;28;19913;-84
2023/05/20 11:53:49;;;;;;;;;;;23.90;75.80;;;;;;5062993;28;20076;-85
2023/05/20 11:56:15;;;;;;;;;;;24.70;76.60;;;;;;5055113;28;19916;-85
2023/05/20 11:58:42;;;;;;;;;;;24.80;79.00;;;;;;5057075;28;20776;-85
2023/05/20 12:01:08;;;;;;;;;;;24.20;78.70;;;;;;5061538;28;19916;-85
2023/05/20 12:03:33;;;;;;;;;;;24.90;75.00;;;;;;5053284;28;19930;-84
2023/05/20 12:06:02;;;;;;;;;;;24.60;75.00;;;;;;5063574;28;19908;-83
2023/05/20 12:08:28;;;;;;;;;;;23.30;77.10;;;;;;5059888;28;20307;-83
2023/05/20 12:10:53;;;;;;;;;;;24.50;77.70;;;;;;5057535;28;19916;-83
2023/05/20 12:13:19;;;;;;;;;;;23.40;77.80;;;;;;5050624;28;19917;-83
2023/05/20 12:15:44;;;;;;;;;;;23.50;77.90;;;;;;5055848;28;19923;-83
2023/05/20 12:18:10;;;;;;;;;;;23.40;77.60;;;;;;5066604;28;19920;-83
2023/05/20 12:20:35;;;;;;;;;;;23.70;77.90;;;;;;5064967;28;19912;-84
2023/05/20 12:23:01;;;;;;;;;;;23.60;77.50;;;;;;5051996;28;19948;-87
2023/05/20 12:25:27;;;;;;;;;;;24.60;79.10;;;;;;5049127;28;19974;-82
2023/05/20 12:27:53;;;;;;;;;;;24.80;78.40;;;;;;5078566;28;19994;-82
2023/05/20 12:30:20;;;;;;;;;;;23.90;77.80;;;;;;5071305;28;19912;-84
2023/05/20 12:32:46;;;;;;;;;;;25.20;77.00;;;;;;5073297;28;20008;-84
2023/05/20 12:35:12;;;;;;;;;;;25.10;76.70;;;;;;5052478;28;19978;-82
2023/05/20 12:37:37;;;;;;;;;;;25.60;75.80;;;;;;5070148;28;20377;-83
2023/05/20 12:40:07;;;;;;;;;;;25.40;74.80;;;;;;5044004;28;20315;-81
2023/05/20 12:42:36;;;;;;;;;;;25.10;75.60;;;;;;5053486;28;19955;-86
2023/05/20 12:45:02;;;;;;;;;;;24.90;76.80;;;;;;5064305;28;19916;-85
2023/05/20 12:47:27;;;;;;;;;;;25.20;75.30;;;;;;5069060;28;19917;-84
2023/05/20 12:49:53;;;;;;;;;;;24.10;74.90;;;;;;5059569;28;19919;-83
2023/05/20 12:52:18;;;;;;;;;;;25.10;75.00;;;;;;5072077;28;19970;-83
2023/05/20 12:54:44;;;;;;;;;;;24.20;75.20;;;;;;5060960;28;20388;-82
2023/05/20 12:57:09;;;;;;;;;;;24.90;75.90;;;;;;5057437;28;19908;-82
2023/05/20 12:59:35;;;;;;;;;;;24.00;75.80;;;;;;5069933;28;19916;-83
2023/05/20 13:02:00;;;;;;;;;;;25.20;77.40;;;;;;5067744;28;19995;-84
2023/05/20 13:04:26;;;;;;;;;;;25.70;73.80;;;;;;5055874;28;19938;-84
2023/05/20 13:06:51;;;;;;;;;;;25.60;74.00;;;;;;5049759;28;19908;-85
2023/05/20 13:09:17;;;;;;;;;;;25.70;76.40;;;;;;5050670;28;19909;-83
2023/05/20 13:11:42;;;;;;;;;;;24.50;74.20;;;;;;5068918;28;20383;-84
2023/05/20 13:14:08;;;;;;;;;;;25.40;74.70;;;;;;5043258;28;19915;-83
2023/05/20 13:16:33;;;;;;;;;;;24.30;75.50;;;;;;5056338;28;19913;-83
2023/05/20 13:18:58;;;;;;;;;;;24.60;76.00;;;;;;5072928;28;19919;-83
2023/05/20 13:21:24;;;;;;;;;;;25.00;77.00;;;;;;5049694;28;19908;-84
2023/05/20 13:23:49;;;;;;;;;;;24.90;77.10;;;;;;5063889;28;20440;-83
2023/05/20 13:26:15;;;;;;;;;;;24.80;78.10;;;;;;5067442;28;19961;-82
2023/05/20 13:28:40;;;;;;;;;;;24.40;76.00;;;;;;5054033;28;19995;-84
2023/05/20 13:31:06;;;;;;;;;;;23.80;76.30;;;;;;5074330;28;20487;-84
2023/05/20 13:33:31;;;;;;;;;;;23.70;77.00;;;;;;5063634;28;19965;-82
2023/05/20 13:35:57;;;;;;;;;;;24.70;79.00;;;;;;5069315;28;19908;-83
2023/05/20 13:38:22;;;;;;;;;;;24.00;77.30;;;;;;5065886;28;19920;-83
2023/05/20 13:40:48;;;;;;;;;;;25.20;79.10;;;;;;5069531;28;20364;-82
2023/05/20 13:43:14;;;;;;;;;;;24.30;76.50;;;;;;5068334;28;19909;-82
2023/05/20 13:45:39;;;;;;;;;;;24.40;77.50;;;;;;5068623;28;20357;-82
2023/05/20 13:48:05;;;;;;;;;;;25.10;73.60;;;;;;5065453;28;19908;-83
2023/05/20 13:50:30;;;;;;;;;;;24.70;73.20;;;;;;5061545;28;20372;-84
2023/05/20 13:52:56;;;;;;;;;;;24.80;74.80;;;;;;5069815;28;19909;-84
2023/05/20 13:55:21;;;;;;;;;;;27.30;77.60;;;;;;5041468;28;20372;-82
2023/05/20 13:57:47;;;;;;;;;;;24.80;75.90;;;;;;5070226;28;19916;-84
2023/05/20 14:00:13;;;;;;;;;;;24.70;76.10;;;;;;5058025;28;19995;-82
2023/05/20 14:02:38;;;;;;;;;;;25.20;76.60;;;;;;5074011;28;19916;-82
2023/05/20 14:05:06;;;;;;;;;;;25.10;76.70;;;;;;5073735;28;19908;-85
2023/05/20 14:07:31;;;;;;;;;;;24.90;77.00;;;;;;5062669;28;19932;-82
2023/05/20 14:09:56;;;;;;;;;;;24.90;77.30;;;;;;5059139;28;19912;-83
2023/05/20 14:12:23;;;;;;;;;;;24.90;77.70;;;;;;5046135;28;19916;-83
2023/05/20 14:14:48;;;;;;;;;;;25.00;78.70;;;;;;5071388;28;19912;-83
2023/05/20 14:17:14;;;;;;;;;;;23.70;77.30;;;;;;5052320;28;20343;-86
2023/05/20 14:19:39;;;;;;;;;;;25.00;77.90;;;;;;5065750;28;20330;-87
2023/05/20 14:22:05;;;;;;;;;;;25.10;77.20;;;;;;5073300;28;19908;-85
2023/05/20 14:24:30;;;;;;;;;;;25.00;77.30;;;;;;5055092;28;19916;-84
2023/05/20 14:26:56;;;;;;;;;;;25.40;76.50;;;;;;5067903;28;19908;-84